sensor_id;sensor_type;location;lat;lon;timestamp;P1;durP1;ratioP1;P2;durP2;ratioP2
12048;SDS011;6085;49.452;8.502;2023-01-08T00:01:41;5.15;;;4.57;;
12048;SDS011;6085;49.452;8.502;2023-01-08T00:05:43;6.22;;;5.05;;
12048;SDS011;6085;49.452;8.502;2023-01-08T00:09:46;7.25;;;4.78;;
12048;SDS011;6085;49.452;8.502;2023-01-08T00:13:49;6.18;;;4.80;;
12048;SDS011;6085;49.452;8.502;2023-01-08T00:17:51;5.03;;;4.53;;
12048;SDS011;6085;49.452;8.502;2023-01-08T00:21:53;5.40;;;4.90;;
12048;SDS011;6085;49.452;8.502;2023-01-08T00:25:56;6.15;;;4.85;;
12048;SDS011;6085;49.452;8.502;2023-01-08T00:30:01;5.00;;;4.50;;
12048;SDS011;6085;49.452;8.502;2023-01-08T00:34:03;6.78;;;4.43;;
12048;SDS011;6085;49.452;8.502;2023-01-08T00:38:04;5.47;;;4.53;;
12048;SDS011;6085;49.452;8.502;2023-01-08T00:42:08;5.03;;;4.53;;
12048;SDS011;6085;49.452;8.502;2023-01-08T00:46:10;4.80;;;4.30;;
12048;SDS011;6085;49.452;8.502;2023-01-08T00:50:12;5.57;;;4.32;;
12048;SDS011;6085;49.452;8.502;2023-01-08T00:54:14;6.10;;;4.75;;
12048;SDS011;6085;49.452;8.502;2023-01-08T00:58:17;5.15;;;4.65;;
12048;SDS011;6085;49.452;8.502;2023-01-08T01:02:19;4.88;;;4.43;;
12048;SDS011;6085;49.452;8.502;2023-01-08T01:06:20;6.18;;;5.03;;
12048;SDS011;6085;49.452;8.502;2023-01-08T01:10:22;4.68;;;4.18;;
12048;SDS011;6085;49.452;8.502;2023-01-08T01:14:25;5.25;;;4.75;;
12048;SDS011;6085;49.452;8.502;2023-01-08T01:18:27;5.57;;;4.25;;
12048;SDS011;6085;49.452;8.502;2023-01-08T01:22:31;5.20;;;4.70;;
12048;SDS011;6085;49.452;8.502;2023-01-08T01:26:33;5.80;;;4.82;;
12048;SDS011;6085;49.452;8.502;2023-01-08T01:30:36;4.68;;;4.25;;
12048;SDS011;6085;49.452;8.502;2023-01-08T01:34:38;4.65;;;4.13;;
12048;SDS011;6085;49.452;8.502;2023-01-08T01:38:41;5.47;;;4.22;;
12048;SDS011;6085;49.452;8.502;2023-01-08T01:42:43;4.28;;;3.85;;
12048;SDS011;6085;49.452;8.502;2023-01-08T01:46:46;4.22;;;3.83;;
12048;SDS011;6085;49.452;8.502;2023-01-08T01:50:50;4.68;;;3.92;;
12048;SDS011;6085;49.452;8.502;2023-01-08T01:54:53;4.15;;;3.70;;
12048;SDS011;6085;49.452;8.502;2023-01-08T01:58:55;4.35;;;3.78;;
12048;SDS011;6085;49.452;8.502;2023-01-08T02:02:58;4.15;;;3.85;;
12048;SDS011;6085;49.452;8.502;2023-01-08T02:07:02;4.40;;;3.97;;
12048;SDS011;6085;49.452;8.502;2023-01-08T02:11:10;4.60;;;4.20;;
12048;SDS011;6085;49.452;8.502;2023-01-08T02:15:17;4.32;;;3.92;;
12048;SDS011;6085;49.452;8.502;2023-01-08T02:19:29;4.82;;;3.83;;
12048;SDS011;6085;49.452;8.502;2023-01-08T02:23:41;4.28;;;3.88;;
12048;SDS011;6085;49.452;8.502;2023-01-08T02:27:50;4.95;;;3.95;;
12048;SDS011;6085;49.452;8.502;2023-01-08T02:31:54;4.55;;;3.92;;
12048;SDS011;6085;49.452;8.502;2023-01-08T02:36:09;4.20;;;3.63;;
12048;SDS011;6085;49.452;8.502;2023-01-08T02:40:26;4.20;;;3.72;;
12048;SDS011;6085;49.452;8.502;2023-01-08T02:44:36;3.97;;;3.58;;
12048;SDS011;6085;49.452;8.502;2023-01-08T02:48:46;4.70;;;3.97;;
12048;SDS011;6085;49.452;8.502;2023-01-08T02:52:53;4.45;;;4.05;;
12048;SDS011;6085;49.452;8.502;2023-01-08T02:56:59;3.78;;;3.47;;
12048;SDS011;6085;49.452;8.502;2023-01-08T03:01:08;4.78;;;4.03;;
12048;SDS011;6085;49.452;8.502;2023-01-08T03:05:13;4.05;;;3.65;;
12048;SDS011;6085;49.452;8.502;2023-01-08T03:09:20;4.18;;;3.53;;
12048;SDS011;6085;49.452;8.502;2023-01-08T03:13:25;4.20;;;3.78;;
12048;SDS011;6085;49.452;8.502;2023-01-08T03:17:33;4.45;;;3.78;;
12048;SDS011;6085;49.452;8.502;2023-01-08T03:21:39;4.22;;;3.85;;
12048;SDS011;6085;49.452;8.502;2023-01-08T03:25:43;4.72;;;4.25;;
12048;SDS011;6085;49.452;8.502;2023-01-08T03:29:48;4.70;;;4.20;;
12048;SDS011;6085;49.452;8.502;2023-01-08T03:33:53;4.32;;;3.92;;
12048;SDS011;6085;49.452;8.502;2023-01-08T03:37:57;5.22;;;4.65;;
12048;SDS011;6085;49.452;8.502;2023-01-08T03:42:08;5.30;;;4.30;;
12048;SDS011;6085;49.452;8.502;2023-01-08T03:46:15;5.03;;;4.40;;
12048;SDS011;6085;49.452;8.502;2023-01-08T03:50:24;4.30;;;3.92;;
12048;SDS011;6085;49.452;8.502;2023-01-08T03:54:29;5.25;;;3.80;;
12048;SDS011;6085;49.452;8.502;2023-01-08T03:58:31;5.60;;;3.50;;
12048;SDS011;6085;49.452;8.502;2023-01-08T04:02:33;4.20;;;3.80;;
12048;SDS011;6085;49.452;8.502;2023-01-08T04:06:36;3.75;;;3.42;;
12048;SDS011;6085;49.452;8.502;2023-01-08T04:10:38;3.75;;;3.45;;
12048;SDS011;6085;49.452;8.502;2023-01-08T04:14:40;4.20;;;3.80;;
12048;SDS011;6085;49.452;8.502;2023-01-08T04:18:42;4.78;;;3.50;;
12048;SDS011;6085;49.452;8.502;2023-01-08T04:22:45;3.92;;;3.55;;
12048;SDS011;6085;49.452;8.502;2023-01-08T04:26:47;4.32;;;3.92;;
12048;SDS011;6085;49.452;8.502;2023-01-08T04:30:49;3.83;;;3.45;;
12048;SDS011;6085;49.452;8.502;2023-01-08T04:34:50;4.25;;;3.78;;
12048;SDS011;6085;49.452;8.502;2023-01-08T04:38:54;6.97;;;3.92;;
12048;SDS011;6085;49.452;8.502;2023-01-08T04:42:56;4.20;;;3.80;;
12048;SDS011;6085;49.452;8.502;2023-01-08T04:46:57;4.53;;;3.65;;
12048;SDS011;6085;49.452;8.502;2023-01-08T04:51:00;5.82;;;4.55;;
12048;SDS011;6085;49.452;8.502;2023-01-08T04:55:04;4.18;;;3.80;;
12048;SDS011;6085;49.452;8.502;2023-01-08T04:59:06;4.78;;;4.38;;
12048;SDS011;6085;49.452;8.502;2023-01-08T05:03:08;4.82;;;4.22;;
12048;SDS011;6085;49.452;8.502;2023-01-08T05:07:10;7.03;;;4.65;;
12048;SDS011;6085;49.452;8.502;2023-01-08T05:11:13;4.95;;;4.13;;
12048;SDS011;6085;49.452;8.502;2023-01-08T05:15:15;4.60;;;4.20;;
12048;SDS011;6085;49.452;8.502;2023-01-08T05:19:17;5.50;;;4.30;;
12048;SDS011;6085;49.452;8.502;2023-01-08T05:23:19;5.88;;;4.65;;
12048;SDS011;6085;49.452;8.502;2023-01-08T05:27:22;4.80;;;4.40;;
12048;SDS011;6085;49.452;8.502;2023-01-08T05:31:24;4.78;;;4.38;;
12048;SDS011;6085;49.452;8.502;2023-01-08T05:35:25;5.57;;;4.45;;
12048;SDS011;6085;49.452;8.502;2023-01-08T05:39:27;4.28;;;3.88;;
12048;SDS011;6085;49.452;8.502;2023-01-08T05:43:30;4.97;;;4.40;;
12048;SDS011;6085;49.452;8.502;2023-01-08T05:47:33;5.53;;;4.78;;
12048;SDS011;6085;49.452;8.502;2023-01-08T05:51:35;5.82;;;5.15;;
12048;SDS011;6085;49.452;8.502;2023-01-08T05:55:37;5.90;;;4.85;;
12048;SDS011;6085;49.452;8.502;2023-01-08T05:59:41;6.70;;;5.03;;
12048;SDS011;6085;49.452;8.502;2023-01-08T06:03:43;6.65;;;5.35;;
12048;SDS011;6085;49.452;8.502;2023-01-08T06:07:45;5.68;;;4.93;;
12048;SDS011;6085;49.452;8.502;2023-01-08T06:11:46;6.20;;;5.32;;
12048;SDS011;6085;49.452;8.502;2023-01-08T06:15:49;5.68;;;5.00;;
12048;SDS011;6085;49.452;8.502;2023-01-08T06:19:51;6.25;;;5.53;;
12048;SDS011;6085;49.452;8.502;2023-01-08T06:23:53;5.60;;;5.10;;
12048;SDS011;6085;49.452;8.502;2023-01-08T06:27:55;6.38;;;5.20;;
12048;SDS011;6085;49.452;8.502;2023-01-08T06:31:58;5.70;;;4.97;;
12048;SDS011;6085;49.452;8.502;2023-01-08T06:36:00;5.57;;;5.07;;
12048;SDS011;6085;49.452;8.502;2023-01-08T06:40:03;6.22;;;5.63;;
12048;SDS011;6085;49.452;8.502;2023-01-08T06:44:06;5.68;;;4.80;;
12048;SDS011;6085;49.452;8.502;2023-01-08T06:48:09;5.93;;;5.15;;
12048;SDS011;6085;49.452;8.502;2023-01-08T06:52:11;6.07;;;5.43;;
12048;SDS011;6085;49.452;8.502;2023-01-08T06:56:13;5.95;;;5.10;;
12048;SDS011;6085;49.452;8.502;2023-01-08T07:00:15;6.07;;;4.90;;
12048;SDS011;6085;49.452;8.502;2023-01-08T07:04:18;5.75;;;5.13;;
12048;SDS011;6085;49.452;8.502;2023-01-08T07:08:21;5.75;;;4.78;;
12048;SDS011;6085;49.452;8.502;2023-01-08T07:12:23;6.03;;;5.00;;
12048;SDS011;6085;49.452;8.502;2023-01-08T07:16:25;5.15;;;4.65;;
12048;SDS011;6085;49.452;8.502;2023-01-08T07:20:28;5.20;;;4.65;;
12048;SDS011;6085;49.452;8.502;2023-01-08T07:24:30;4.85;;;4.35;;
12048;SDS011;6085;49.452;8.502;2023-01-08T07:28:32;5.03;;;4.60;;
12048;SDS011;6085;49.452;8.502;2023-01-08T07:32:34;5.90;;;4.45;;
12048;SDS011;6085;49.452;8.502;2023-01-08T07:36:37;5.80;;;4.45;;
12048;SDS011;6085;49.452;8.502;2023-01-08T07:40:39;4.15;;;3.75;;
12048;SDS011;6085;49.452;8.502;2023-01-08T07:44:41;4.20;;;3.80;;
12048;SDS011;6085;49.452;8.502;2023-01-08T07:48:42;4.38;;;3.97;;
12048;SDS011;6085;49.452;8.502;2023-01-08T07:52:49;4.50;;;3.83;;
12048;SDS011;6085;49.452;8.502;2023-01-08T07:56:52;4.65;;;4.25;;
12048;SDS011;6085;49.452;8.502;2023-01-08T08:00:55;5.45;;;4.05;;
12048;SDS011;6085;49.452;8.502;2023-01-08T08:04:57;5.03;;;4.50;;
12048;SDS011;6085;49.452;8.502;2023-01-08T08:09:00;4.95;;;4.45;;
12048;SDS011;6085;49.452;8.502;2023-01-08T08:13:02;4.85;;;4.35;;
12048;SDS011;6085;49.452;8.502;2023-01-08T08:17:05;5.30;;;4.65;;
12048;SDS011;6085;49.452;8.502;2023-01-08T08:21:06;6.13;;;5.10;;
12048;SDS011;6085;49.452;8.502;2023-01-08T08:25:10;5.72;;;4.65;;
12048;SDS011;6085;49.452;8.502;2023-01-08T08:29:15;4.88;;;4.30;;
12048;SDS011;6085;49.452;8.502;2023-01-08T08:33:16;5.68;;;5.03;;
12048;SDS011;6085;49.452;8.502;2023-01-08T08:37:18;5.82;;;5.30;;
12048;SDS011;6085;49.452;8.502;2023-01-08T08:41:21;6.18;;;5.28;;
12048;SDS011;6085;49.452;8.502;2023-01-08T08:45:23;6.80;;;5.45;;
12048;SDS011;6085;49.452;8.502;2023-01-08T08:49:25;5.82;;;5.20;;
12048;SDS011;6085;49.452;8.502;2023-01-08T08:53:27;6.53;;;5.30;;
12048;SDS011;6085;49.452;8.502;2023-01-08T08:57:30;7.40;;;5.45;;
12048;SDS011;6085;49.452;8.502;2023-01-08T09:01:32;6.63;;;5.07;;
12048;SDS011;6085;49.452;8.502;2023-01-08T09:05:34;5.72;;;4.78;;
12048;SDS011;6085;49.452;8.502;2023-01-08T09:09:36;5.10;;;4.60;;
12048;SDS011;6085;49.452;8.502;2023-01-08T09:13:39;5.30;;;4.45;;
12048;SDS011;6085;49.452;8.502;2023-01-08T09:17:41;5.75;;;4.35;;
12048;SDS011;6085;49.452;8.502;2023-01-08T09:21:43;6.10;;;4.18;;
12048;SDS011;6085;49.452;8.502;2023-01-08T09:25:44;4.78;;;4.38;;
12048;SDS011;6085;49.452;8.502;2023-01-08T09:29:47;4.53;;;4.13;;
12048;SDS011;6085;49.452;8.502;2023-01-08T09:33:49;6.28;;;4.55;;
12048;SDS011;6085;49.452;8.502;2023-01-08T09:37:51;5.22;;;4.30;;
12048;SDS011;6085;49.452;8.502;2023-01-08T09:41:54;4.50;;;4.07;;
12048;SDS011;6085;49.452;8.502;2023-01-08T09:45:59;5.10;;;3.50;;
12048;SDS011;6085;49.452;8.502;2023-01-08T09:50:05;6.65;;;4.00;;
12048;SDS011;6085;49.452;8.502;2023-01-08T09:54:12;4.35;;;4.03;;
12048;SDS011;6085;49.452;8.502;2023-01-08T09:58:22;4.22;;;3.63;;
12048;SDS011;6085;49.452;8.502;2023-01-08T10:02:31;4.88;;;3.10;;
12048;SDS011;6085;49.452;8.502;2023-01-08T10:06:35;3.17;;;2.85;;
12048;SDS011;6085;49.452;8.502;2023-01-08T10:10:37;3.38;;;3.08;;
12048;SDS011;6085;49.452;8.502;2023-01-08T10:14:40;2.83;;;2.63;;
12048;SDS011;6085;49.452;8.502;2023-01-08T10:18:50;3.00;;;2.70;;
12048;SDS011;6085;49.452;8.502;2023-01-08T10:22:52;3.20;;;2.65;;
12048;SDS011;6085;49.452;8.502;2023-01-08T10:26:54;2.60;;;2.40;;
12048;SDS011;6085;49.452;8.502;2023-01-08T10:31:07;3.08;;;2.88;;
12048;SDS011;6085;49.452;8.502;2023-01-08T10:35:15;2.25;;;2.08;;
12048;SDS011;6085;49.452;8.502;2023-01-08T10:39:20;2.85;;;2.20;;
12048;SDS011;6085;49.452;8.502;2023-01-08T10:43:26;2.17;;;2.08;;
12048;SDS011;6085;49.452;8.502;2023-01-08T10:47:30;2.72;;;2.17;;
12048;SDS011;6085;49.452;8.502;2023-01-08T10:51:37;2.13;;;1.95;;
12048;SDS011;6085;49.452;8.502;2023-01-08T10:55:56;2.30;;;2.10;;
12048;SDS011;6085;49.452;8.502;2023-01-08T10:59:58;1.90;;;1.67;;
12048;SDS011;6085;49.452;8.502;2023-01-08T11:04:01;1.90;;;1.55;;
12048;SDS011;6085;49.452;8.502;2023-01-08T11:08:06;1.90;;;1.80;;
12048;SDS011;6085;49.452;8.502;2023-01-08T11:12:29;1.55;;;1.40;;
12048;SDS011;6085;49.452;8.502;2023-01-08T11:16:35;1.80;;;1.70;;
12048;SDS011;6085;49.452;8.502;2023-01-08T11:20:39;1.70;;;1.60;;
12048;SDS011;6085;49.452;8.502;2023-01-08T11:24:43;2.13;;;1.45;;
12048;SDS011;6085;49.452;8.502;2023-01-08T11:28:48;1.50;;;1.40;;
12048;SDS011;6085;49.452;8.502;2023-01-08T11:32:57;2.40;;;1.60;;
12048;SDS011;6085;49.452;8.502;2023-01-08T11:37:07;1.85;;;1.40;;
12048;SDS011;6085;49.452;8.502;2023-01-08T11:41:26;1.80;;;1.70;;
12048;SDS011;6085;49.452;8.502;2023-01-08T11:45:43;1.33;;;1.27;;
12048;SDS011;6085;49.452;8.502;2023-01-08T11:50:00;1.55;;;1.45;;
12048;SDS011;6085;49.452;8.502;2023-01-08T11:54:15;2.00;;;1.80;;
12048;SDS011;6085;49.452;8.502;2023-01-08T11:58:29;2.53;;;1.73;;
12048;SDS011;6085;49.452;8.502;2023-01-08T12:02:48;3.47;;;2.35;;
12048;SDS011;6085;49.452;8.502;2023-01-08T12:06:54;1.60;;;1.50;;
12048;SDS011;6085;49.452;8.502;2023-01-08T12:11:08;1.60;;;1.50;;
12048;SDS011;6085;49.452;8.502;2023-01-08T12:15:19;1.55;;;1.45;;
12048;SDS011;6085;49.452;8.502;2023-01-08T12:19:32;1.60;;;1.50;;
12048;SDS011;6085;49.452;8.502;2023-01-08T12:23:59;1.63;;;1.52;;
12048;SDS011;6085;49.452;8.502;2023-01-08T12:28:28;1.60;;;1.50;;
12048;SDS011;6085;49.452;8.502;2023-01-08T12:32:42;1.75;;;1.58;;
12048;SDS011;6085;49.452;8.502;2023-01-08T12:36:48;1.77;;;1.67;;
12048;SDS011;6085;49.452;8.502;2023-01-08T12:40:54;1.52;;;1.42;;
12048;SDS011;6085;49.452;8.502;2023-01-08T12:44:59;2.13;;;1.63;;
12048;SDS011;6085;49.452;8.502;2023-01-08T12:49:05;1.80;;;1.70;;
12048;SDS011;6085;49.452;8.502;2023-01-08T12:53:12;1.88;;;1.73;;
12048;SDS011;6085;49.452;8.502;2023-01-08T12:57:23;1.42;;;1.33;;
12048;SDS011;6085;49.452;8.502;2023-01-08T13:01:31;1.58;;;1.48;;
12048;SDS011;6085;49.452;8.502;2023-01-08T13:05:43;2.05;;;1.40;;
12048;SDS011;6085;49.452;8.502;2023-01-08T13:09:45;1.52;;;1.42;;
12048;SDS011;6085;49.452;8.502;2023-01-08T13:13:57;1.60;;;1.50;;
12048;SDS011;6085;49.452;8.502;2023-01-08T13:18:03;1.50;;;1.40;;
12048;SDS011;6085;49.452;8.502;2023-01-08T13:22:22;1.60;;;1.45;;
12048;SDS011;6085;49.452;8.502;2023-01-08T13:26:27;1.42;;;1.33;;
12048;SDS011;6085;49.452;8.502;2023-01-08T13:30:35;1.45;;;1.35;;
12048;SDS011;6085;49.452;8.502;2023-01-08T13:34:39;1.17;;;1.15;;
12048;SDS011;6085;49.452;8.502;2023-01-08T13:38:43;1.70;;;1.42;;
12048;SDS011;6085;49.452;8.502;2023-01-08T13:42:45;1.38;;;1.27;;
12048;SDS011;6085;49.452;8.502;2023-01-08T13:46:52;2.05;;;1.52;;
12048;SDS011;6085;49.452;8.502;2023-01-08T13:50:55;1.50;;;1.40;;
12048;SDS011;6085;49.452;8.502;2023-01-08T13:54:58;2.05;;;1.42;;
12048;SDS011;6085;49.452;8.502;2023-01-08T13:59:01;1.40;;;1.30;;
12048;SDS011;6085;49.452;8.502;2023-01-08T14:03:18;0.95;;;0.95;;
12048;SDS011;6085;49.452;8.502;2023-01-08T14:07:22;1.15;;;1.05;;
12048;SDS011;6085;49.452;8.502;2023-01-08T14:11:28;1.42;;;1.33;;
12048;SDS011;6085;49.452;8.502;2023-01-08T14:15:33;0.90;;;0.90;;
12048;SDS011;6085;49.452;8.502;2023-01-08T14:19:36;1.63;;;1.05;;
12048;SDS011;6085;49.452;8.502;2023-01-08T14:23:41;2.22;;;0.88;;
12048;SDS011;6085;49.452;8.502;2023-01-08T14:27:54;1.30;;;1.13;;
12048;SDS011;6085;49.452;8.502;2023-01-08T14:32:00;1.17;;;1.08;;
12048;SDS011;6085;49.452;8.502;2023-01-08T14:36:02;1.40;;;1.30;;
12048;SDS011;6085;49.452;8.502;2023-01-08T14:40:11;0.95;;;0.95;;
12048;SDS011;6085;49.452;8.502;2023-01-08T14:44:15;0.85;;;0.85;;
12048;SDS011;6085;49.452;8.502;2023-01-08T14:48:18;1.10;;;1.10;;
12048;SDS011;6085;49.452;8.502;2023-01-08T14:52:22;1.10;;;1.00;;
12048;SDS011;6085;49.452;8.502;2023-01-08T14:56:25;0.93;;;0.93;;
12048;SDS011;6085;49.452;8.502;2023-01-08T15:00:31;1.70;;;1.38;;
12048;SDS011;6085;49.452;8.502;2023-01-08T15:04:33;2.22;;;1.10;;
12048;SDS011;6085;49.452;8.502;2023-01-08T15:08:35;1.40;;;1.30;;
12048;SDS011;6085;49.452;8.502;2023-01-08T15:12:38;0.80;;;0.80;;
12048;SDS011;6085;49.452;8.502;2023-01-08T15:16:41;0.90;;;0.90;;
12048;SDS011;6085;49.452;8.502;2023-01-08T15:20:43;1.05;;;1.05;;
12048;SDS011;6085;49.452;8.502;2023-01-08T15:24:50;0.98;;;0.98;;
12048;SDS011;6085;49.452;8.502;2023-01-08T15:29:05;0.88;;;0.88;;
12048;SDS011;6085;49.452;8.502;2023-01-08T15:33:14;0.60;;;0.60;;
12048;SDS011;6085;49.452;8.502;2023-01-08T15:37:19;0.70;;;0.70;;
12048;SDS011;6085;49.452;8.502;2023-01-08T15:41:21;1.50;;;1.00;;
12048;SDS011;6085;49.452;8.502;2023-01-08T15:45:42;1.15;;;1.05;;
12048;SDS011;6085;49.452;8.502;2023-01-08T15:49:46;0.85;;;0.82;;
12048;SDS011;6085;49.452;8.502;2023-01-08T15:53:47;1.48;;;1.38;;
12048;SDS011;6085;49.452;8.502;2023-01-08T15:57:49;1.27;;;1.00;;
12048;SDS011;6085;49.452;8.502;2023-01-08T16:01:51;0.90;;;0.90;;
12048;SDS011;6085;49.452;8.502;2023-01-08T16:05:54;0.82;;;0.82;;
12048;SDS011;6085;49.452;8.502;2023-01-08T16:10:02;1.20;;;1.10;;
12048;SDS011;6085;49.452;8.502;2023-01-08T16:14:09;1.15;;;1.05;;
12048;SDS011;6085;49.452;8.502;2023-01-08T16:18:11;1.15;;;1.05;;
12048;SDS011;6085;49.452;8.502;2023-01-08T16:22:14;1.15;;;1.08;;
12048;SDS011;6085;49.452;8.502;2023-01-08T16:26:15;1.55;;;1.40;;
12048;SDS011;6085;49.452;8.502;2023-01-08T16:30:17;1.05;;;1.05;;
12048;SDS011;6085;49.452;8.502;2023-01-08T16:34:20;1.52;;;1.42;;
12048;SDS011;6085;49.452;8.502;2023-01-08T16:38:23;1.23;;;1.13;;
12048;SDS011;6085;49.452;8.502;2023-01-08T16:42:25;0.95;;;0.95;;
12048;SDS011;6085;49.452;8.502;2023-01-08T16:46:27;1.13;;;1.13;;
12048;SDS011;6085;49.452;8.502;2023-01-08T16:50:29;1.40;;;1.30;;
12048;SDS011;6085;49.452;8.502;2023-01-08T16:54:34;1.17;;;1.13;;
12048;SDS011;6085;49.452;8.502;2023-01-08T16:58:36;3.22;;;2.72;;
12048;SDS011;6085;49.452;8.502;2023-01-08T17:02:37;1.67;;;1.58;;
12048;SDS011;6085;49.452;8.502;2023-01-08T17:06:39;1.38;;;1.27;;
12048;SDS011;6085;49.452;8.502;2023-01-08T17:10:42;1.70;;;1.60;;
12048;SDS011;6085;49.452;8.502;2023-01-08T17:14:45;1.60;;;1.50;;
12048;SDS011;6085;49.452;8.502;2023-01-08T17:18:46;1.60;;;1.50;;
12048;SDS011;6085;49.452;8.502;2023-01-08T17:22:48;1.67;;;1.58;;
12048;SDS011;6085;49.452;8.502;2023-01-08T17:26:52;1.80;;;1.70;;
12048;SDS011;6085;49.452;8.502;2023-01-08T17:30:53;2.47;;;2.25;;
12048;SDS011;6085;49.452;8.502;2023-01-08T17:35:02;3.08;;;2.55;;
12048;SDS011;6085;49.452;8.502;2023-01-08T17:39:04;2.67;;;2.47;;
12048;SDS011;6085;49.452;8.502;2023-01-08T17:43:07;1.98;;;1.85;;
12048;SDS011;6085;49.452;8.502;2023-01-08T17:47:09;2.22;;;2.03;;
12048;SDS011;6085;49.452;8.502;2023-01-08T17:51:11;2.80;;;2.08;;
12048;SDS011;6085;49.452;8.502;2023-01-08T17:55:13;2.97;;;2.35;;
12048;SDS011;6085;49.452;8.502;2023-01-08T17:59:16;2.20;;;2.00;;
12048;SDS011;6085;49.452;8.502;2023-01-08T18:03:19;3.67;;;3.20;;
12048;SDS011;6085;49.452;8.502;2023-01-08T18:07:21;3.42;;;3.13;;
12048;SDS011;6085;49.452;8.502;2023-01-08T18:11:23;3.33;;;3.00;;
12048;SDS011;6085;49.452;8.502;2023-01-08T18:15:26;4.00;;;2.78;;
12048;SDS011;6085;49.452;8.502;2023-01-08T18:19:28;2.30;;;2.10;;
12048;SDS011;6085;49.452;8.502;2023-01-08T18:23:30;2.65;;;2.45;;
12048;SDS011;6085;49.452;8.502;2023-01-08T18:27:33;2.42;;;2.13;;
12048;SDS011;6085;49.452;8.502;2023-01-08T18:31:36;2.80;;;2.28;;
12048;SDS011;6085;49.452;8.502;2023-01-08T18:35:38;2.70;;;2.50;;
12048;SDS011;6085;49.452;8.502;2023-01-08T18:39:40;2.83;;;2.55;;
12048;SDS011;6085;49.452;8.502;2023-01-08T18:43:42;2.75;;;2.40;;
12048;SDS011;6085;49.452;8.502;2023-01-08T18:47:45;3.33;;;3.03;;
12048;SDS011;6085;49.452;8.502;2023-01-08T18:51:47;3.15;;;2.80;;
12048;SDS011;6085;49.452;8.502;2023-01-08T18:55:49;4.25;;;3.28;;
12048;SDS011;6085;49.452;8.502;2023-01-08T18:59:50;2.80;;;2.60;;
12048;SDS011;6085;49.452;8.502;2023-01-08T19:03:54;3.15;;;2.75;;
12048;SDS011;6085;49.452;8.502;2023-01-08T19:07:56;5.82;;;3.15;;
12048;SDS011;6085;49.452;8.502;2023-01-08T19:11:57;5.78;;;5.13;;
12048;SDS011;6085;49.452;8.502;2023-01-08T19:16:01;8.15;;;6.57;;
12048;SDS011;6085;49.452;8.502;2023-01-08T19:20:05;6.53;;;5.68;;
12048;SDS011;6085;49.452;8.502;2023-01-08T19:24:08;6.75;;;6.03;;
12048;SDS011;6085;49.452;8.502;2023-01-08T19:28:10;6.45;;;5.45;;
12048;SDS011;6085;49.452;8.502;2023-01-08T19:32:12;7.05;;;4.80;;
12048;SDS011;6085;49.452;8.502;2023-01-08T19:36:15;4.45;;;4.03;;
12048;SDS011;6085;49.452;8.502;2023-01-08T19:40:18;4.63;;;4.13;;
12048;SDS011;6085;49.452;8.502;2023-01-08T19:44:20;4.05;;;2.88;;
12048;SDS011;6085;49.452;8.502;2023-01-08T19:48:22;3.55;;;3.13;;
12048;SDS011;6085;49.452;8.502;2023-01-08T19:52:25;4.18;;;2.97;;
12048;SDS011;6085;49.452;8.502;2023-01-08T19:56:27;3.80;;;3.28;;
12048;SDS011;6085;49.452;8.502;2023-01-08T20:00:29;3.92;;;2.47;;
12048;SDS011;6085;49.452;8.502;2023-01-08T20:04:36;2.67;;;2.17;;
12048;SDS011;6085;49.452;8.502;2023-01-08T20:08:40;2.47;;;2.28;;
12048;SDS011;6085;49.452;8.502;2023-01-08T20:12:42;2.25;;;2.05;;
12048;SDS011;6085;49.452;8.502;2023-01-08T20:16:44;2.25;;;1.92;;
12048;SDS011;6085;49.452;8.502;2023-01-08T20:20:45;2.50;;;2.30;;
12048;SDS011;6085;49.452;8.502;2023-01-08T20:24:49;4.15;;;2.20;;
12048;SDS011;6085;49.452;8.502;2023-01-08T20:28:51;2.90;;;2.13;;
12048;SDS011;6085;49.452;8.502;2023-01-08T20:32:54;3.00;;;2.20;;
12048;SDS011;6085;49.452;8.502;2023-01-08T20:36:55;2.40;;;2.20;;
12048;SDS011;6085;49.452;8.502;2023-01-08T20:40:59;2.50;;;2.25;;
12048;SDS011;6085;49.452;8.502;2023-01-08T20:45:01;2.45;;;2.25;;
12048;SDS011;6085;49.452;8.502;2023-01-08T20:49:03;2.30;;;2.10;;
12048;SDS011;6085;49.452;8.502;2023-01-08T20:53:07;2.40;;;2.20;;
12048;SDS011;6085;49.452;8.502;2023-01-08T20:57:10;2.65;;;2.10;;
12048;SDS011;6085;49.452;8.502;2023-01-08T21:01:12;2.55;;;2.35;;
12048;SDS011;6085;49.452;8.502;2023-01-08T21:05:15;2.95;;;2.35;;
12048;SDS011;6085;49.452;8.502;2023-01-08T21:09:17;2.40;;;2.20;;
12048;SDS011;6085;49.452;8.502;2023-01-08T21:13:21;2.38;;;2.17;;
12048;SDS011;6085;49.452;8.502;2023-01-08T21:17:22;2.40;;;2.20;;
12048;SDS011;6085;49.452;8.502;2023-01-08T21:21:25;2.50;;;2.30;;
12048;SDS011;6085;49.452;8.502;2023-01-08T21:25:30;2.90;;;2.60;;
12048;SDS011;6085;49.452;8.502;2023-01-08T21:29:35;2.42;;;2.22;;
12048;SDS011;6085;49.452;8.502;2023-01-08T21:33:37;2.53;;;2.33;;
12048;SDS011;6085;49.452;8.502;2023-01-08T21:37:39;2.42;;;2.22;;
12048;SDS011;6085;49.452;8.502;2023-01-08T21:41:41;3.30;;;2.38;;
12048;SDS011;6085;49.452;8.502;2023-01-08T21:46:01;2.88;;;2.67;;
12048;SDS011;6085;49.452;8.502;2023-01-08T21:50:03;3.70;;;2.72;;
12048;SDS011;6085;49.452;8.502;2023-01-08T21:54:06;3.03;;;2.83;;
12048;SDS011;6085;49.452;8.502;2023-01-08T21:58:07;3.20;;;2.90;;
12048;SDS011;6085;49.452;8.502;2023-01-08T22:02:13;2.88;;;2.67;;
12048;SDS011;6085;49.452;8.502;2023-01-08T22:06:17;3.33;;;3.03;;
12048;SDS011;6085;49.452;8.502;2023-01-08T22:10:19;4.55;;;3.20;;
12048;SDS011;6085;49.452;8.502;2023-01-08T22:14:21;3.55;;;3.20;;
12048;SDS011;6085;49.452;8.502;2023-01-08T22:18:24;3.15;;;2.92;;
12048;SDS011;6085;49.452;8.502;2023-01-08T22:22:26;3.65;;;3.17;;
12048;SDS011;6085;49.452;8.502;2023-01-08T22:26:28;2.83;;;2.63;;
12048;SDS011;6085;49.452;8.502;2023-01-08T22:30:29;3.03;;;2.80;;
12048;SDS011;6085;49.452;8.502;2023-01-08T22:34:33;2.83;;;2.53;;
12048;SDS011;6085;49.452;8.502;2023-01-08T22:38:35;3.60;;;3.30;;
12048;SDS011;6085;49.452;8.502;2023-01-08T22:42:37;3.38;;;2.70;;
12048;SDS011;6085;49.452;8.502;2023-01-08T22:46:39;2.65;;;2.45;;
12048;SDS011;6085;49.452;8.502;2023-01-08T22:50:42;2.72;;;2.50;;
12048;SDS011;6085;49.452;8.502;2023-01-08T22:54:44;3.80;;;2.83;;
12048;SDS011;6085;49.452;8.502;2023-01-08T22:58:46;4.35;;;2.95;;
12048;SDS011;6085;49.452;8.502;2023-01-08T23:02:48;3.63;;;3.33;;
12048;SDS011;6085;49.452;8.502;2023-01-08T23:06:51;3.58;;;2.75;;
12048;SDS011;6085;49.452;8.502;2023-01-08T23:10:53;4.88;;;3.60;;
12048;SDS011;6085;49.452;8.502;2023-01-08T23:14:56;3.33;;;3.03;;
12048;SDS011;6085;49.452;8.502;2023-01-08T23:18:59;3.50;;;3.20;;
12048;SDS011;6085;49.452;8.502;2023-01-08T23:23:02;3.80;;;3.50;;
12048;SDS011;6085;49.452;8.502;2023-01-08T23:27:03;4.97;;;3.78;;
12048;SDS011;6085;49.452;8.502;2023-01-08T23:31:05;4.45;;;4.00;;
12048;SDS011;6085;49.452;8.502;2023-01-08T23:35:08;7.22;;;4.40;;
12048;SDS011;6085;49.452;8.502;2023-01-08T23:39:11;4.70;;;4.30;;
12048;SDS011;6085;49.452;8.502;2023-01-08T23:43:13;4.22;;;3.92;;
12048;SDS011;6085;49.452;8.502;2023-01-08T23:47:15;4.55;;;4.10;;
12048;SDS011;6085;49.452;8.502;2023-01-08T23:51:17;5.15;;;3.83;;
12048;SDS011;6085;49.452;8.502;2023-01-08T23:55:20;5.95;;;4.25;;
12048;SDS011;6085;49.452;8.502;2023-01-08T23:59:22;4.55;;;4.15;;
